createdAt,value
2019-03-20T00:00:26.670Z,9.78
2019-03-20T00:02:57.008Z,11.08
2019-03-20T00:05:27.342Z,11.08
2019-03-20T00:07:57.687Z,12.03
2019-03-20T00:10:28.455Z,11.95
2019-03-20T00:12:58.793Z,13.40
2019-03-20T00:15:29.367Z,13.43
2019-03-20T00:17:59.708Z,13.10
2019-03-20T00:20:30.050Z,15.65
2019-03-20T00:23:12.821Z,14.90
2019-03-20T00:25:43.622Z,14.25
2019-03-20T00:28:13.962Z,15.43
2019-03-20T00:30:44.299Z,14.53
2019-03-20T00:33:14.649Z,13.83
2019-03-20T00:35:45.018Z,14.78
2019-03-20T00:38:15.356Z,15.53
2019-03-20T00:40:45.695Z,15.72
2019-03-20T00:43:16.153Z,14.03
2019-03-20T00:45:46.479Z,16.05
2019-03-20T00:48:16.831Z,16.07
2019-03-20T00:50:47.166Z,15.65
2019-03-20T00:53:17.594Z,14.65
2019-03-20T00:55:47.948Z,15.65
2019-03-20T00:58:18.274Z,15.55
2019-03-20T01:00:48.610Z,14.23
2019-03-20T01:03:18.967Z,14.83
2019-03-20T01:05:49.302Z,14.10
2019-03-20T01:08:19.654Z,15.25
2019-03-20T01:10:49.986Z,14.15
2019-03-20T01:13:20.336Z,14.93
2019-03-20T01:15:50.668Z,14.47
2019-03-20T01:18:22.459Z,14.70
2019-03-20T01:20:52.937Z,14.23
2019-03-20T01:23:23.283Z,14.63
2019-03-20T01:25:53.622Z,15.20
2019-03-20T01:28:23.994Z,14.38
2019-03-20T01:30:54.363Z,13.13
2019-03-20T01:33:24.708Z,14.30
2019-03-20T01:35:55.055Z,14.40
2019-03-20T01:38:25.391Z,14.40
2019-03-20T01:40:55.730Z,14.30
2019-03-20T01:43:26.145Z,16.42
2019-03-20T01:45:56.481Z,14.18
2019-03-20T01:48:26.860Z,14.75
2019-03-20T01:51:00.277Z,15.08
2019-03-20T01:53:30.640Z,14.20
2019-03-20T01:56:01.616Z,14.20
2019-03-20T01:58:32.003Z,15.08
2019-03-20T02:01:02.364Z,16.90
2019-03-20T02:03:32.690Z,15.58
2019-03-20T02:06:03.032Z,14.38
2019-03-20T02:08:33.379Z,15.25
2019-03-20T02:11:03.723Z,14.90
2019-03-20T02:13:34.086Z,15.20
2019-03-20T02:16:04.483Z,16.50
2019-03-20T02:18:34.824Z,15.53
2019-03-20T02:21:05.235Z,14.65
2019-03-20T02:23:35.575Z,14.87
2019-03-20T02:26:05.914Z,14.95
2019-03-20T02:28:36.255Z,15.45
2019-03-20T02:31:06.596Z,15.45
2019-03-20T02:33:36.950Z,16.57
2019-03-20T02:36:07.290Z,15.00
2019-03-20T02:38:37.635Z,15.05
2019-03-20T02:41:07.994Z,15.40
2019-03-20T02:43:38.328Z,15.28
2019-03-20T02:46:08.682Z,15.93
2019-03-20T02:48:39.037Z,15.30
2019-03-20T02:51:09.370Z,15.98
2019-03-20T02:53:39.704Z,15.05
2019-03-20T02:56:10.388Z,15.70
2019-03-20T02:58:40.740Z,14.75
2019-03-20T03:01:12.055Z,16.02
2019-03-20T03:03:42.389Z,16.60
2019-03-20T03:06:13.803Z,16.57
2019-03-20T03:08:44.165Z,15.28
2019-03-20T03:11:14.590Z,15.23
2019-03-20T03:13:44.929Z,14.87
2019-03-20T03:16:15.269Z,16.35
2019-03-20T03:18:45.598Z,14.87
2019-03-20T03:21:15.945Z,16.35
2019-03-20T03:23:46.302Z,16.37
2019-03-20T03:26:16.636Z,17.37
2019-03-20T03:28:48.059Z,16.45
2019-03-20T03:31:18.393Z,16.55
2019-03-20T03:33:57.358Z,16.97
2019-03-20T03:36:27.658Z,16.80
2019-03-20T03:38:58.011Z,17.55
2019-03-20T03:41:28.338Z,15.53
2019-03-20T03:43:58.684Z,16.20
2019-03-20T03:46:29.031Z,16.15
2019-03-20T03:48:59.373Z,16.95
2019-03-20T03:51:29.707Z,17.10
2019-03-20T03:54:00.048Z,15.58
2019-03-20T03:56:30.387Z,15.55
2019-03-20T03:59:00.740Z,16.25
2019-03-20T04:01:31.077Z,16.32
2019-03-20T04:04:01.423Z,15.78
2019-03-20T04:06:35.807Z,16.70
2019-03-20T04:09:05.750Z,16.12
2019-03-20T04:11:36.091Z,17.20
2019-03-20T04:14:06.438Z,16.32
2019-03-20T04:16:36.771Z,16.97
2019-03-20T04:19:07.110Z,15.90
2019-03-20T04:21:37.456Z,15.93
2019-03-20T04:24:07.827Z,16.02
2019-03-20T04:26:38.133Z,15.90
2019-03-20T04:29:08.462Z,16.05
2019-03-20T04:31:38.806Z,16.57
2019-03-20T04:34:09.141Z,15.85
2019-03-20T04:36:47.518Z,15.18
2019-03-20T04:39:11.542Z,16.00
2019-03-20T04:41:41.882Z,16.42
2019-03-20T04:44:12.223Z,16.60
2019-03-20T04:46:42.574Z,15.63
2019-03-20T04:49:12.930Z,16.10
2019-03-20T04:51:43.279Z,15.50
2019-03-20T04:54:13.634Z,16.30
2019-03-20T04:56:43.988Z,17.80
2019-03-20T04:59:14.356Z,17.87
2019-03-20T05:01:44.719Z,15.98
2019-03-20T05:04:17.022Z,17.95
2019-03-20T05:06:57.905Z,16.85
2019-03-20T05:09:19.413Z,16.65
2019-03-20T05:11:49.753Z,16.70
2019-03-20T05:14:20.100Z,17.62
2019-03-20T05:16:50.445Z,18.10
2019-03-20T05:19:20.788Z,18.07
2019-03-20T05:21:51.153Z,16.42
2019-03-20T05:24:21.477Z,17.07
2019-03-20T05:26:51.839Z,18.25
2019-03-20T05:29:22.180Z,18.65
2019-03-20T05:31:52.521Z,18.75
2019-03-20T05:34:22.854Z,19.23
2019-03-20T05:36:53.220Z,20.65
2019-03-20T05:39:23.560Z,17.62
2019-03-20T05:41:54.987Z,19.17
2019-03-20T05:44:25.321Z,19.45
2019-03-20T05:46:55.681Z,18.95
2019-03-20T05:49:26.019Z,18.25
2019-03-20T05:51:56.365Z,19.17
2019-03-20T05:54:26.702Z,18.05
2019-03-20T05:56:57.052Z,19.23
2019-03-20T05:59:27.386Z,19.25
2019-03-20T06:01:57.739Z,20.72
2019-03-20T06:04:28.077Z,20.90
2019-03-20T06:06:58.424Z,19.35
2019-03-20T06:09:28.801Z,20.95
2019-03-20T06:12:00.895Z,20.08
2019-03-20T06:14:31.243Z,20.23
2019-03-20T06:17:04.417Z,22.30
2019-03-20T06:19:34.778Z,21.75
2019-03-20T06:22:05.108Z,21.17
2019-03-20T06:24:35.459Z,22.22
2019-03-20T06:27:08.656Z,21.55
2019-03-20T06:29:38.994Z,22.00
2019-03-20T06:32:09.338Z,21.62
2019-03-20T06:34:39.682Z,21.90
2019-03-20T06:37:10.028Z,22.37
2019-03-20T06:39:40.365Z,21.97
2019-03-20T06:42:10.711Z,23.02
2019-03-20T06:44:42.023Z,23.47
2019-03-20T06:47:12.379Z,23.83
2019-03-20T06:49:42.719Z,23.25
2019-03-20T06:52:14.017Z,22.90
2019-03-20T06:54:44.386Z,22.90
2019-03-20T06:57:14.747Z,24.47
2019-03-20T07:00:29.813Z,22.52
2019-03-20T07:03:03.139Z,22.62
2019-03-20T07:21:25.252Z,27.77
2019-03-20T07:23:55.596Z,25.85
2019-03-20T07:26:25.947Z,26.45
2019-03-20T07:28:56.290Z,26.80
2019-03-20T07:31:26.638Z,27.62
2019-03-20T07:33:56.983Z,29.00
2019-03-20T07:36:27.331Z,25.05
2019-03-20T07:38:57.667Z,26.85
2019-03-20T07:41:28.035Z,26.80
2019-03-20T07:43:58.457Z,25.92
2019-03-20T07:46:28.809Z,27.00
2019-03-20T07:48:59.151Z,26.73
2019-03-20T07:51:29.490Z,26.07
2019-03-20T07:53:59.835Z,24.98
2019-03-20T07:56:30.177Z,25.82
2019-03-20T07:59:00.612Z,25.10
2019-03-20T08:01:30.951Z,26.57
2019-03-20T08:04:02.368Z,25.10
2019-03-20T08:06:32.706Z,25.55
2019-03-20T08:09:04.149Z,25.65
2019-03-20T08:11:34.485Z,24.00
2019-03-20T08:14:05.181Z,25.25
2019-03-20T08:16:35.525Z,24.82
2019-03-20T08:19:05.868Z,25.20
2019-03-20T08:21:36.212Z,26.17
2019-03-20T08:24:06.986Z,24.40
2019-03-20T08:26:37.339Z,24.77
2019-03-20T08:29:07.690Z,23.65
2019-03-20T08:31:38.056Z,24.32
2019-03-20T08:34:08.423Z,23.98
2019-03-20T08:36:38.776Z,25.55
2019-03-20T08:39:10.190Z,25.00
2019-03-20T08:41:40.538Z,25.30
2019-03-20T08:44:10.887Z,23.35
2019-03-20T08:46:41.230Z,23.20
2019-03-20T08:49:11.590Z,24.25
2019-03-20T08:51:41.939Z,23.73
2019-03-20T08:54:12.289Z,25.00
2019-03-20T08:56:42.650Z,23.70
2019-03-20T08:59:13.004Z,22.65
2019-03-20T09:01:43.371Z,24.05
2019-03-20T09:04:13.728Z,24.43
2019-03-20T09:06:44.078Z,22.35
2019-03-20T09:09:14.433Z,23.77
2019-03-20T09:11:44.777Z,24.15
2019-03-20T09:14:15.198Z,21.45
2019-03-20T09:16:45.590Z,25.62
2019-03-20T09:19:15.943Z,24.27
2019-03-20T09:21:46.309Z,23.52
2019-03-20T09:24:17.641Z,22.90
2019-03-20T09:26:47.998Z,25.45
2019-03-20T09:29:19.043Z,24.15
2019-03-20T09:31:49.438Z,22.58
2019-03-20T09:34:19.794Z,23.18
2019-03-20T09:36:50.144Z,22.85
2019-03-20T09:39:20.507Z,23.27
2019-03-20T09:41:50.861Z,23.95
2019-03-20T09:44:21.226Z,24.12
2019-03-20T09:46:51.572Z,24.52
2019-03-20T09:49:21.937Z,23.73
2019-03-20T09:51:52.284Z,23.07
2019-03-20T09:54:22.640Z,21.95
2019-03-20T09:56:53.015Z,24.00
2019-03-20T09:59:23.386Z,23.45
2019-03-20T10:01:53.731Z,24.30
2019-03-20T10:04:24.117Z,22.25
2019-03-20T10:06:54.479Z,22.82
2019-03-20T10:09:24.810Z,22.27
2019-03-20T10:11:57.434Z,22.52
2019-03-20T10:14:27.217Z,21.82
2019-03-20T10:16:57.562Z,23.62
2019-03-20T10:19:27.921Z,23.25
2019-03-20T10:21:58.288Z,22.98
2019-03-20T10:24:28.642Z,22.95
2019-03-20T10:26:58.987Z,23.73
2019-03-20T10:29:29.332Z,21.20
2019-03-20T10:31:59.684Z,22.50
2019-03-20T10:34:39.161Z,21.85
2019-03-20T10:37:02.144Z,22.00
2019-03-20T10:39:32.500Z,20.75
2019-03-20T10:42:02.865Z,20.43
2019-03-20T10:44:33.206Z,18.55
2019-03-20T10:47:04.626Z,19.27
2019-03-20T10:49:35.044Z,21.42
2019-03-20T10:52:05.531Z,19.35
2019-03-20T10:54:35.892Z,20.85
2019-03-20T10:57:06.252Z,19.15
2019-03-20T10:59:36.603Z,19.87
2019-03-20T11:02:06.940Z,18.27
2019-03-20T11:04:37.285Z,18.95
2019-03-20T11:07:07.656Z,19.25
2019-03-20T11:09:38.056Z,18.30
2019-03-20T11:12:08.405Z,18.15
2019-03-20T11:14:38.864Z,18.90
2019-03-20T11:17:09.206Z,18.10
2019-03-20T11:19:39.549Z,19.00
2019-03-20T11:22:18.721Z,18.32
2019-03-20T11:24:43.165Z,18.55
2019-03-20T11:27:13.522Z,18.02
2019-03-20T11:29:43.865Z,19.20
2019-03-20T11:32:14.581Z,17.45
2019-03-20T11:34:44.941Z,16.80
2019-03-20T11:37:15.287Z,18.57
2019-03-20T11:39:45.639Z,17.35
2019-03-20T11:42:15.984Z,17.95
2019-03-20T11:44:46.347Z,17.10
2019-03-20T11:47:16.700Z,17.23
2019-03-20T11:49:47.118Z,17.82
2019-03-20T11:52:17.637Z,19.27
2019-03-20T11:54:48.962Z,16.17
2019-03-20T11:57:21.565Z,17.65
2019-03-20T11:59:51.355Z,19.15
2019-03-20T12:02:28.001Z,18.62
2019-03-20T12:04:54.054Z,18.23
2019-03-20T12:07:24.499Z,18.17
2019-03-20T12:09:54.862Z,17.62
2019-03-20T12:12:25.209Z,19.45
2019-03-20T12:14:55.577Z,18.52
2019-03-20T12:17:25.920Z,19.70
2019-03-20T12:19:56.281Z,18.30
2019-03-20T12:22:26.638Z,19.05
2019-03-20T12:24:56.984Z,18.87
2019-03-20T12:27:27.348Z,19.92
2019-03-20T12:29:57.725Z,21.55
2019-03-20T12:32:28.079Z,19.73
2019-03-20T12:34:58.431Z,19.23
2019-03-20T12:37:28.825Z,20.10
2019-03-20T12:39:59.167Z,19.65
2019-03-20T12:52:24.652Z,19.77
2019-03-20T12:54:55.053Z,20.43
2019-03-20T12:57:25.405Z,19.25
2019-03-20T12:59:55.801Z,18.67
2019-03-20T13:02:26.153Z,18.75
2019-03-20T13:04:56.528Z,19.48
2019-03-20T13:07:26.884Z,16.05
2019-03-20T13:10:03.167Z,18.37
2019-03-20T13:12:29.327Z,19.57
2019-03-20T13:14:59.698Z,19.05
2019-03-20T13:17:30.112Z,19.98
2019-03-20T13:20:00.463Z,18.87
2019-03-20T13:22:31.064Z,18.98
2019-03-20T13:25:03.017Z,17.23
2019-03-20T13:27:34.020Z,18.52
2019-03-20T13:30:34.281Z,18.57
2019-03-20T13:33:04.985Z,19.87
2019-03-20T13:35:35.352Z,20.20
2019-03-20T13:38:07.317Z,18.25
2019-03-20T13:40:44.793Z,19.55
2019-03-20T13:43:15.235Z,17.30
2019-03-20T13:45:45.601Z,16.67
2019-03-20T13:48:19.739Z,17.75
2019-03-20T13:50:50.072Z,17.10
2019-03-20T13:53:20.470Z,16.37
2019-03-20T13:55:50.816Z,17.62
2019-03-20T13:58:22.194Z,16.70
2019-03-20T14:00:52.562Z,18.10
2019-03-20T14:03:22.953Z,16.23
2019-03-20T14:05:53.331Z,16.23
2019-03-20T14:08:23.733Z,15.55
2019-03-20T14:10:54.191Z,14.70
2019-03-20T14:13:36.522Z,15.08
2019-03-20T14:16:06.886Z,15.80
2019-03-20T14:18:37.254Z,15.25
2019-03-20T14:21:08.527Z,15.03
2019-03-20T14:23:38.935Z,14.35
2019-03-20T14:26:14.326Z,14.78
2019-03-20T14:28:44.778Z,15.28
2019-03-20T14:31:15.093Z,13.75
2019-03-20T14:33:45.466Z,12.95
2019-03-20T14:36:15.832Z,14.30
2019-03-20T14:38:48.797Z,14.58
2019-03-20T14:41:21.810Z,13.53
2019-03-20T14:43:51.172Z,14.40
2019-03-20T14:46:21.539Z,13.98
2019-03-20T14:49:06.394Z,13.43
2019-03-20T14:51:46.769Z,12.13
2019-03-20T14:54:17.136Z,13.20
2019-03-20T14:56:47.533Z,14.35
2019-03-20T14:59:17.904Z,13.32
2019-03-20T15:01:48.258Z,15.00
2019-03-20T15:04:18.644Z,15.43
2019-03-20T15:06:49.006Z,14.47
2019-03-20T15:09:19.464Z,12.78
2019-03-20T15:11:49.831Z,13.30
2019-03-20T15:14:20.299Z,14.20
2019-03-20T15:16:50.685Z,14.95
2019-03-20T15:19:21.037Z,13.43
2019-03-20T15:21:51.391Z,14.80
2019-03-20T15:24:21.758Z,12.47
2019-03-20T15:26:52.182Z,12.23
2019-03-20T15:29:22.546Z,12.37
2019-03-20T15:31:54.562Z,11.95
2019-03-20T15:34:24.935Z,12.30
2019-03-20T15:36:56.350Z,11.78
2019-03-20T15:39:26.702Z,12.63
2019-03-20T15:41:57.101Z,13.00
2019-03-20T15:44:28.447Z,12.35
2019-03-20T15:46:58.799Z,12.37
2019-03-20T15:49:31.923Z,11.80
2019-03-20T15:52:02.314Z,12.58
2019-03-20T15:54:32.773Z,11.12
2019-03-20T15:57:03.144Z,12.78
2019-03-20T15:59:33.533Z,11.45
2019-03-20T16:02:03.955Z,10.68
2019-03-20T16:04:34.346Z,10.93
2019-03-20T16:07:04.710Z,10.48
2019-03-20T16:09:35.116Z,9.68
2019-03-20T16:12:05.527Z,8.90
2019-03-20T16:14:35.971Z,11.35
2019-03-20T16:17:06.315Z,8.80
2019-03-20T16:19:38.343Z,9.78
2019-03-20T16:22:08.728Z,9.20
2019-03-20T16:24:42.081Z,8.25
2019-03-20T16:27:12.656Z,8.85
2019-03-20T16:29:43.039Z,8.15
2019-03-20T16:32:13.382Z,8.38
2019-03-20T16:34:43.739Z,8.20
2019-03-20T16:37:14.092Z,8.48
2019-03-20T16:39:45.438Z,8.20
2019-03-20T16:42:15.865Z,8.13
2019-03-20T16:44:46.288Z,7.62
2019-03-20T16:47:16.650Z,8.63
2019-03-20T16:49:47.014Z,9.15
2019-03-20T16:52:17.384Z,8.73
2019-03-20T16:54:47.771Z,8.68
2019-03-20T16:57:18.141Z,7.97
2019-03-20T16:59:48.503Z,8.05
2019-03-20T17:02:18.860Z,8.33
2019-03-20T17:04:50.152Z,7.90
2019-03-20T17:07:20.516Z,8.75
2019-03-20T17:09:50.899Z,8.73
2019-03-20T17:12:21.261Z,9.53
2019-03-20T17:14:51.621Z,9.10
2019-03-20T17:17:21.994Z,8.10
2019-03-20T17:19:52.366Z,9.40
2019-03-20T17:22:22.726Z,10.30
2019-03-20T17:24:53.169Z,9.40
2019-03-20T17:27:23.518Z,9.58
2019-03-20T17:29:53.869Z,8.80
2019-03-20T17:32:24.226Z,8.98
2019-03-20T17:34:54.626Z,9.30
2019-03-20T17:37:24.977Z,9.50
2019-03-20T17:39:57.413Z,9.18
2019-03-20T17:42:28.030Z,9.45
2019-03-20T17:44:58.393Z,9.90
2019-03-20T17:47:28.747Z,8.40
2019-03-20T17:49:59.122Z,10.10
2019-03-20T17:52:31.155Z,9.50
2019-03-20T17:55:01.494Z,9.55
2019-03-20T17:57:31.839Z,9.28
2019-03-20T18:00:02.235Z,10.30
2019-03-20T18:02:32.589Z,9.50
2019-03-20T18:05:03.188Z,8.68
2019-03-20T18:07:33.552Z,9.30
2019-03-20T18:10:04.591Z,9.40
2019-03-20T18:12:34.960Z,9.63
2019-03-20T18:15:11.056Z,9.93
2019-03-20T18:17:41.499Z,8.98
2019-03-20T18:20:15.476Z,8.48
2019-03-20T18:22:45.830Z,9.00
2019-03-20T18:25:16.206Z,9.65
2019-03-20T18:27:48.215Z,9.35
2019-03-20T18:30:27.419Z,9.65
2019-03-20T18:32:57.777Z,9.00
2019-03-20T18:35:28.204Z,9.65
2019-03-20T18:37:59.046Z,9.88
2019-03-20T18:40:29.718Z,10.20
2019-03-20T18:43:00.193Z,9.65
2019-03-20T18:45:30.549Z,10.40
2019-03-20T18:48:02.110Z,11.50
2019-03-20T18:50:32.533Z,10.10
2019-03-20T18:53:02.976Z,11.28
2019-03-20T18:55:34.669Z,11.33
2019-03-20T18:58:05.560Z,11.53
2019-03-20T19:00:36.409Z,10.93
2019-03-20T19:03:28.845Z,11.70
2019-03-20T19:06:10.955Z,12.15
2019-03-20T19:08:41.350Z,12.50
2019-03-20T19:11:11.739Z,12.20
2019-03-20T19:13:42.130Z,11.12
2019-03-20T19:16:12.495Z,11.48
2019-03-20T19:18:45.876Z,12.98
2019-03-20T19:21:16.220Z,13.28
2019-03-20T19:23:47.580Z,13.98
2019-03-20T19:26:17.904Z,13.98
2019-03-20T19:28:48.510Z,13.72
2019-03-20T19:31:18.862Z,14.23
2019-03-20T19:33:50.413Z,13.53
2019-03-20T19:36:20.757Z,14.03
2019-03-20T19:38:51.122Z,14.33
2019-03-20T19:41:21.527Z,14.70
2019-03-20T19:43:51.879Z,14.47
2019-03-20T19:46:23.153Z,14.13
2019-03-20T19:48:54.513Z,15.05
2019-03-20T19:51:24.858Z,14.20
2019-03-20T19:53:56.494Z,13.55
2019-03-20T19:56:26.856Z,13.20
2019-03-20T19:58:57.210Z,14.15
2019-03-20T20:01:27.565Z,12.60
2019-03-20T20:03:58.998Z,13.32
2019-03-20T20:06:29.330Z,12.30
2019-03-20T20:08:59.676Z,12.43
2019-03-20T20:11:30.056Z,12.55
2019-03-20T20:14:00.405Z,11.75
2019-03-20T20:16:30.814Z,10.75
2019-03-20T20:19:01.155Z,11.63
2019-03-20T20:22:03.006Z,11.83
2019-03-20T20:24:34.460Z,10.70
2019-03-20T20:27:04.910Z,12.28
2019-03-20T20:29:35.322Z,10.72
2019-03-20T20:32:05.760Z,11.10
2019-03-20T20:34:36.184Z,10.35
2019-03-20T20:37:06.888Z,11.65
2019-03-20T20:39:37.313Z,11.30
2019-03-20T20:42:07.711Z,10.32
2019-03-20T20:44:38.073Z,10.40
2019-03-20T20:47:08.435Z,9.63
2019-03-20T20:49:38.847Z,10.55
2019-03-20T20:52:18.981Z,9.45
2019-03-20T20:54:41.316Z,9.93
2019-03-20T20:57:11.663Z,9.30
2019-03-20T20:59:42.025Z,9.68
2019-03-20T21:02:14.261Z,10.63
2019-03-20T21:04:44.642Z,8.93
2019-03-20T21:07:14.995Z,9.95
2019-03-20T21:09:45.383Z,10.28
2019-03-20T21:12:15.747Z,9.85
2019-03-20T21:14:46.079Z,9.83
2019-03-20T21:17:21.073Z,10.60
2019-03-20T21:19:51.483Z,9.08
2019-03-20T21:22:35.491Z,9.73
2019-03-20T21:25:06.705Z,9.35
2019-03-20T21:28:16.757Z,10.18
2019-03-20T21:31:00.457Z,10.40
2019-03-20T21:34:07.458Z,11.60
2019-03-20T21:37:32.777Z,10.95
2019-03-20T21:40:04.051Z,9.83
2019-03-20T21:43:28.861Z,10.03
2019-03-20T21:46:36.858Z,10.90
2019-03-20T21:49:07.208Z,10.43
2019-03-20T21:51:37.622Z,10.45
2019-03-20T21:54:15.083Z,11.73
2019-03-20T21:57:04.805Z,10.28
2019-03-20T22:00:00.421Z,10.28
2019-03-20T22:02:45.055Z,11.03
2019-03-20T22:05:43.438Z,11.63
2019-03-20T22:08:14.545Z,11.28
2019-03-20T22:11:32.596Z,12.05
2019-03-20T22:14:15.374Z,11.63
2019-03-20T22:17:21.805Z,12.15
2019-03-20T22:20:02.290Z,11.25
2019-03-20T22:23:13.707Z,12.28
2019-03-20T22:26:06.730Z,11.95
2019-03-20T22:29:05.753Z,12.30
2019-03-20T22:31:43.448Z,12.30
2019-03-20T22:34:37.885Z,12.13
2019-03-20T22:37:08.232Z,11.75
2019-03-20T22:40:06.850Z,12.00
2019-03-20T22:42:47.254Z,11.60
2019-03-20T22:45:44.550Z,11.68
2019-03-20T22:48:25.230Z,12.98
2019-03-20T22:51:25.720Z,11.65
2019-03-20T22:54:21.925Z,11.53
2019-03-20T22:57:32.769Z,11.57
2019-03-20T23:00:11.848Z,13.08
2019-03-20T23:06:00.834Z,12.70
2019-03-20T23:08:31.180Z,11.75
2019-03-20T23:11:01.635Z,13.15
2019-03-20T23:13:41.167Z,14.30
2019-03-20T23:16:08.248Z,13.95
2019-03-20T23:18:38.707Z,14.05
2019-03-20T23:21:09.044Z,13.18
2019-03-20T23:23:39.957Z,14.07
2019-03-20T23:26:10.496Z,13.90
2019-03-20T23:28:42.706Z,14.30
2019-03-20T23:31:13.078Z,14.58
2019-03-20T23:33:43.444Z,15.78
2019-03-20T23:36:18.536Z,14.07
2019-03-20T23:38:52.161Z,14.53
2019-03-20T23:41:22.638Z,14.68
2019-03-20T23:43:53.504Z,16.40
2019-03-20T23:46:25.911Z,15.93
2019-03-20T23:49:13.003Z,14.65
2019-03-20T23:51:44.891Z,15.50
2019-03-20T23:54:18.800Z,15.85
2019-03-20T23:56:49.356Z,16.55
2019-03-20T23:59:19.987Z,17.82
